createdAt,value
2023-05-19T00:04:43.512Z,1.50
2023-05-19T00:09:52.079Z,1.60
2023-05-19T00:15:01.294Z,1.70
2023-05-19T00:20:12.184Z,1.40
2023-05-19T00:25:19.426Z,1.30
2023-05-19T00:30:27.021Z,1.50
2023-05-19T00:35:34.519Z,1.20
2023-05-19T00:40:41.785Z,1.80
2023-05-19T00:45:49.568Z,1.30
2023-05-19T00:51:02.498Z,1.70
2023-05-19T00:56:10.070Z,1.60
2023-05-19T01:01:17.525Z,1.60
2023-05-19T01:06:25.673Z,1.40
2023-05-19T01:11:32.827Z,1.80
2023-05-19T01:16:45.202Z,1.40
2023-05-19T01:22:13.937Z,2.00
2023-05-19T01:27:57.812Z,2.70
2023-05-19T01:33:08.408Z,1.50
2023-05-19T01:38:18.458Z,1.80
2023-05-19T01:43:27.715Z,1.50
2023-05-19T01:48:35.491Z,1.40
2023-05-19T01:53:42.738Z,1.80
2023-05-19T01:58:54.308Z,1.60
2023-05-19T02:04:21.720Z,1.60
2023-05-19T02:09:38.993Z,1.50
2023-05-19T02:14:51.256Z,1.80
2023-05-19T02:19:58.358Z,1.50
2023-05-19T02:25:05.874Z,1.70
2023-05-19T02:30:14.084Z,2.10
2023-05-19T02:40:27.151Z,1.90
2023-05-19T02:45:35.480Z,1.90
2023-05-19T02:50:43.914Z,2.00
2023-05-19T02:55:51.582Z,1.80
2023-05-19T03:00:59.361Z,2.10
2023-05-19T03:06:08.845Z,1.80
2023-05-19T03:11:16.686Z,1.90
2023-05-19T03:16:24.633Z,2.20
2023-05-19T03:26:37.894Z,1.90
2023-05-19T03:31:45.185Z,2.00
2023-05-19T03:36:53.398Z,2.00
2023-05-19T03:42:01.778Z,2.50
2023-05-19T03:47:11.669Z,2.40
2023-05-19T03:52:49.021Z,2.00
2023-05-19T03:58:10.790Z,2.90
2023-05-19T04:03:18.075Z,2.10
2023-05-19T04:08:25.220Z,3.10
2023-05-19T04:13:34.178Z,2.20
2023-05-19T04:18:41.378Z,2.50
2023-05-19T04:23:48.575Z,2.10
2023-05-19T04:28:56.711Z,2.60
2023-05-19T04:34:04.361Z,2.80
2023-05-19T04:39:12.533Z,2.80
2023-05-19T04:44:21.902Z,1.90
2023-05-19T04:49:30.230Z,2.10
2023-05-19T04:54:38.943Z,2.30
2023-05-19T04:59:47.370Z,2.20
2023-05-19T05:04:56.804Z,2.00
2023-05-19T05:10:07.939Z,2.40
2023-05-19T05:15:18.629Z,2.30
2023-05-19T05:20:28.156Z,2.50
2023-05-19T05:25:37.546Z,3.40
2023-05-19T05:30:45.123Z,2.00
2023-05-19T05:35:56.613Z,1.80
2023-05-19T05:41:05.274Z,1.50
2023-05-19T05:46:15.379Z,1.50
2023-05-19T05:51:24.908Z,2.00
2023-05-19T05:56:33.940Z,1.80
2023-05-19T06:01:42.236Z,1.90
2023-05-19T06:06:49.513Z,1.80
2023-05-19T06:12:01.301Z,1.80
2023-05-19T06:17:11.110Z,1.60
2023-05-19T06:22:18.293Z,2.00
2023-05-19T06:27:25.468Z,1.90
2023-05-19T06:32:33.156Z,2.50
2023-05-19T06:37:40.688Z,2.40
2023-05-19T06:42:48.236Z,1.90
2023-05-19T06:48:09.570Z,1.70
2023-05-19T06:53:18.430Z,1.70
2023-05-19T06:58:26.956Z,2.20
2023-05-19T07:03:34.615Z,2.10
2023-05-19T07:08:42.127Z,1.90
2023-05-19T07:13:50.165Z,2.00
2023-05-19T07:19:02.896Z,3.20
2023-05-19T07:24:10.747Z,2.40
2023-05-19T07:29:18.007Z,2.10
2023-05-19T07:34:25.212Z,2.00
2023-05-19T07:39:32.611Z,3.10
2023-05-19T07:44:39.785Z,2.10
2023-05-19T07:49:49.687Z,2.30
2023-05-19T07:54:58.195Z,1.90
2023-05-19T08:00:07.875Z,2.40
2023-05-19T08:05:18.881Z,1.60
2023-05-19T08:10:26.218Z,2.60
2023-05-19T08:15:36.723Z,1.70
2023-05-19T08:20:43.964Z,2.50
2023-05-19T08:25:51.224Z,1.90
2023-05-19T08:30:58.504Z,2.20
2023-05-19T08:36:06.749Z,2.30
2023-05-19T08:41:14.012Z,2.80
2023-05-19T08:46:23.096Z,2.40
2023-05-19T08:51:35.323Z,2.50
2023-05-19T08:56:44.357Z,2.30
2023-05-19T09:01:51.992Z,2.40
2023-05-19T09:07:02.966Z,2.50
2023-05-19T09:12:10.393Z,2.60
2023-05-19T09:17:19.265Z,3.00
2023-05-19T09:22:26.783Z,2.80
2023-05-19T09:27:35.491Z,2.70
2023-05-19T09:32:43.793Z,2.20
2023-05-19T09:37:51.261Z,3.00
2023-05-19T09:42:58.848Z,3.10
2023-05-19T09:48:09.844Z,2.50
2023-05-19T09:53:20.408Z,2.90
2023-05-19T09:58:28.122Z,3.20
2023-05-19T10:08:43.702Z,3.00
2023-05-19T10:13:54.022Z,3.70
2023-05-19T10:19:03.698Z,3.30
2023-05-19T10:24:12.189Z,3.00
2023-05-19T10:29:24.271Z,3.20
2023-05-19T10:34:54.960Z,2.90
2023-05-19T10:40:08.906Z,3.10
2023-05-19T10:45:22.727Z,3.10
2023-05-19T10:50:36.702Z,2.30
2023-05-19T10:55:53.631Z,2.90
2023-05-19T11:01:08.423Z,2.60
2023-05-19T11:06:28.251Z,2.60
2023-05-19T11:11:49.002Z,2.50
2023-05-19T11:17:00.704Z,2.70
2023-05-19T11:22:15.144Z,2.50
2023-05-19T11:27:28.510Z,3.00
2023-05-19T11:32:39.423Z,2.50
2023-05-19T11:37:47.807Z,2.40
2023-05-19T11:42:54.982Z,2.80
2023-05-19T11:48:03.548Z,2.70
2023-05-19T11:53:13.178Z,1.90
2023-05-19T11:58:26.156Z,1.90
2023-05-19T12:03:33.432Z,2.20
2023-05-19T12:08:41.018Z,2.40
2023-05-19T12:13:48.692Z,2.40
2023-05-19T12:18:56.715Z,1.60
2023-05-19T12:24:04.470Z,1.60
2023-05-19T12:29:11.652Z,1.60
2023-05-19T12:34:19.089Z,2.10
2023-05-19T12:39:27.434Z,2.20
2023-05-19T12:44:40.733Z,1.70
2023-05-19T12:50:04.942Z,1.30
2023-05-19T12:55:13.138Z,1.80
2023-05-19T13:00:22.979Z,1.40
2023-05-19T13:05:31.393Z,1.70
2023-05-19T13:10:40.559Z,1.90
2023-05-19T13:15:49.455Z,1.50
2023-05-19T13:20:56.813Z,1.90
2023-05-19T13:26:05.180Z,1.70
2023-05-19T13:31:12.987Z,1.60
2023-05-19T13:36:20.121Z,1.40
2023-05-19T13:41:29.495Z,1.90
2023-05-19T13:46:45.301Z,2.00
2023-05-19T13:51:57.094Z,2.00
2023-05-19T13:57:04.183Z,1.80
2023-05-19T14:02:12.926Z,1.90
2023-05-19T14:07:20.417Z,1.90
2023-05-19T14:12:38.203Z,1.90
2023-05-19T14:17:54.666Z,2.00
2023-05-19T14:23:02.105Z,2.30
2023-05-19T14:28:11.169Z,2.20
2023-05-19T14:33:19.479Z,2.00
2023-05-19T14:38:27.704Z,2.00
2023-05-19T14:43:36.329Z,2.20
2023-05-19T14:48:43.306Z,2.40
2023-05-19T14:53:50.527Z,2.10
2023-05-19T14:58:57.854Z,2.30
2023-05-19T15:04:05.056Z,2.00
2023-05-19T15:09:14.736Z,2.10
2023-05-19T15:14:22.279Z,3.30
2023-05-19T15:19:29.310Z,2.90
2023-05-19T15:24:36.666Z,3.80
2023-05-19T15:29:45.088Z,3.60
2023-05-19T15:34:52.272Z,5.00
2023-05-19T15:39:59.404Z,3.80
2023-05-19T15:45:09.197Z,4.30
2023-05-19T15:50:16.999Z,3.80
2023-05-19T16:00:29.751Z,3.60
2023-05-19T16:05:37.031Z,3.60
2023-05-19T16:10:44.039Z,3.70
2023-05-19T16:15:51.158Z,3.20
2023-05-19T16:20:58.555Z,3.40
2023-05-19T16:26:05.960Z,3.30
2023-05-19T16:31:13.163Z,3.30
2023-05-19T16:36:22.996Z,4.40
2023-05-19T16:41:35.579Z,2.80
2023-05-19T16:46:42.780Z,3.50
2023-05-19T16:51:50.315Z,2.90
2023-05-19T16:56:57.673Z,3.20
2023-05-19T17:02:04.894Z,4.00
2023-05-19T17:07:15.994Z,3.40
2023-05-19T17:12:26.560Z,3.20
2023-05-19T17:17:33.832Z,3.20
2023-05-19T17:22:41.242Z,3.10
2023-05-19T17:27:48.423Z,2.80
2023-05-19T17:32:59.863Z,3.40
2023-05-19T17:38:07.212Z,3.30
2023-05-19T17:43:14.412Z,3.30
2023-05-19T17:48:21.598Z,3.30
2023-05-19T17:53:30.065Z,3.00
2023-05-19T17:58:38.570Z,3.00
2023-05-19T18:03:49.800Z,2.30
2023-05-19T18:08:59.469Z,2.70
2023-05-19T18:14:06.880Z,2.30
2023-05-19T18:19:14.163Z,2.50
2023-05-19T18:24:24.989Z,2.90
2023-05-19T18:29:32.248Z,3.00
2023-05-19T18:34:39.538Z,2.90
2023-05-19T18:39:46.701Z,3.80
2023-05-19T18:44:54.117Z,3.70
2023-05-19T18:50:01.968Z,4.20
2023-05-19T19:00:19.079Z,4.10
2023-05-19T19:05:26.907Z,3.70
2023-05-19T19:10:39.207Z,5.60
2023-05-19T19:15:46.885Z,4.00
2023-05-19T19:20:55.313Z,4.50
2023-05-19T19:26:02.692Z,3.60
2023-05-19T19:31:12.123Z,3.80
2023-05-19T19:36:19.288Z,4.10
2023-05-19T19:41:26.868Z,3.90
2023-05-19T19:46:34.023Z,3.80
2023-05-19T19:51:41.298Z,4.30
2023-05-19T19:56:48.712Z,3.40
2023-05-19T20:01:56.033Z,3.50
2023-05-19T20:07:03.352Z,3.30
2023-05-19T20:12:11.301Z,2.70
2023-05-19T20:17:18.716Z,2.70
2023-05-19T20:22:26.180Z,4.20
2023-05-19T20:27:37.070Z,3.10
2023-05-19T20:32:47.814Z,3.40
2023-05-19T20:38:03.822Z,3.50
2023-05-19T20:43:11.508Z,3.10
2023-05-19T20:48:18.832Z,4.00
2023-05-19T20:53:30.824Z,3.20
2023-05-19T20:58:42.024Z,3.60
2023-05-19T21:03:50.657Z,3.20
2023-05-19T21:08:58.236Z,3.00
2023-05-19T21:14:06.158Z,3.40
2023-05-19T21:19:16.527Z,3.40
2023-05-19T21:24:23.691Z,3.00
2023-05-19T21:29:30.811Z,4.00
2023-05-19T21:34:39.099Z,4.20
2023-05-19T21:39:46.363Z,3.50
2023-05-19T21:44:53.533Z,3.70
2023-05-19T21:50:00.653Z,4.40
2023-05-19T21:55:10.566Z,3.20
2023-05-19T22:00:18.625Z,3.90
2023-05-19T22:05:25.882Z,3.50
2023-05-19T22:10:33.252Z,3.20
2023-05-19T22:15:42.022Z,4.10
2023-05-19T22:20:49.275Z,4.10
2023-05-19T22:25:56.384Z,3.90
2023-05-19T22:31:03.539Z,3.40
2023-05-19T22:36:11.387Z,2.70
2023-05-19T22:41:18.611Z,3.80
2023-05-19T22:46:45.345Z,3.50
2023-05-19T22:51:52.889Z,3.60
2023-05-19T22:57:00.229Z,3.10
2023-05-19T23:02:07.935Z,3.20
2023-05-19T23:07:15.093Z,3.30
2023-05-19T23:12:22.212Z,3.60
2023-05-19T23:17:29.511Z,3.80
2023-05-19T23:22:36.687Z,4.00
2023-05-19T23:27:43.869Z,4.00
2023-05-19T23:32:50.961Z,3.80
2023-05-19T23:37:58.155Z,3.90
2023-05-19T23:43:05.334Z,4.40
2023-05-19T23:48:12.580Z,3.50
2023-05-19T23:53:20.042Z,3.20
2023-05-19T23:58:27.420Z,3.60
